Time;durP1;ratioP1;P1;durP2;ratioP2;P2;SDS_P1;SDS_P2;PMS_P1;PMS_P2;Temp;Humidity;BMP_temperature;BMP_pressure;BME280_temperature;BME280_humidity;BME280_pressure;Samples;Min_cycle;Max_cycle;Signal;HPM_P1;HPM_P2
2023/03/14 00:02:17;;;;;;;35.50;28.75;;;6.10;99.90;;;;;;4962570;28;20098;-91
2023/03/14 00:04:43;;;;;;;36.00;27.77;;;6.10;99.90;;;;;;4977462;28;20066;-87
2023/03/14 00:07:14;;;;;;;31.95;28.35;;;6.10;99.90;;;;;;4960507;28;20398;-88
2023/03/14 00:09:41;;;;;;;36.45;28.70;;;6.10;99.90;;;;;;4976409;28;20551;-87
2023/03/14 00:12:09;;;;;;;34.45;28.80;;;6.00;99.90;;;;;;4959990;28;20039;-90
2023/03/14 00:14:35;;;;;;;37.38;29.40;;;6.00;99.90;;;;;;4977508;28;20562;-85
2023/03/14 00:17:01;;;;;;;36.70;29.83;;;5.90;99.90;;;;;;4962474;28;20030;-89
2023/03/14 00:19:28;;;;;;;39.42;29.70;;;5.90;99.90;;;;;;4977994;28;20050;-90
2023/03/14 00:22:03;;;;;;;39.95;29.92;;;5.90;99.90;;;;;;4962957;28;20066;-89
2023/03/14 00:24:30;;;;;;;38.33;28.90;;;6.00;99.90;;;;;;4985922;28;20035;-92
2023/03/14 00:27:11;;;;;;;38.20;29.33;;;6.00;99.90;;;;;;4963233;28;20550;-92
2023/03/14 00:29:43;;;;;;;40.47;29.27;;;6.00;99.90;;;;;;4977667;28;20502;-93
2023/03/14 00:34:49;;;;;;;33.47;28.08;;;6.10;99.90;;;;;;5036533;28;20054;-92
2023/03/14 00:37:15;;;;;;;35.58;27.30;;;6.10;99.90;;;;;;4998213;28;20057;-90
2023/03/14 00:39:44;;;;;;;36.15;28.05;;;6.00;99.90;;;;;;5002126;28;20030;-92
2023/03/14 00:42:11;;;;;;;35.50;29.42;;;6.00;99.90;;;;;;4998530;28;20117;-90
2023/03/14 00:44:37;;;;;;;35.35;28.42;;;5.90;99.90;;;;;;4982195;28;20038;-86
2023/03/14 00:47:07;;;;;;;37.03;27.80;;;5.80;99.90;;;;;;4999767;28;20034;-89
2023/03/14 00:49:33;;;;;;;30.02;26.13;;;5.80;99.90;;;;;;4982046;28;20026;-87
2023/03/14 00:52:00;;;;;;;41.00;28.00;;;5.80;99.90;;;;;;4998258;28;20030;-85
2023/03/14 00:54:26;;;;;;;43.55;29.60;;;5.80;99.90;;;;;;4985510;28;20037;-84
2023/03/14 00:56:53;;;;;;;30.77;25.83;;;5.80;99.90;;;;;;4995762;28;20046;-84
2023/03/14 00:59:19;;;;;;;31.52;25.60;;;5.80;99.90;;;;;;4994207;28;20026;-83
2023/03/14 01:01:45;;;;;;;33.47;26.45;;;5.80;99.90;;;;;;5010103;28;20026;-82
2023/03/14 01:04:12;;;;;;;32.42;25.20;;;5.70;99.90;;;;;;4994858;28;20030;-83
2023/03/14 09:52:09;;;;;;;19.42;17.38;;;17.90;99.90;;;;;;2243068;23;20449;-92
2023/03/14 10:08:41;;;;;;;18.30;16.45;;;18.70;99.90;;;;;;4901274;29;20056;-94
2023/03/14 10:55:26;;;;;;;18.02;16.02;;;17.80;99.90;;;;;;6053813;23;21351;-92
2023/03/14 11:20:00;;;;;;;18.17;16.25;;;17.80;99.90;;;;;;4901708;29;20137;-92
2023/03/14 11:23:28;;;;;;;;;;;;;;;;;;;;;
2023/03/14 11:27:32;;;;;;;;;;;;;;;;;;;;;
2023/03/14 11:34:48;;;;;;;18.38;16.70;;;18.30;99.90;;;;;;4778328;30;20067;-94
2023/03/14 11:38:25;;;;;;;;;;;;;;;;;;;;;
2023/03/14 11:41:58;;;;;;;;;;;;;;;;;;;;;
2023/03/14 11:45:29;;;;;;;;;;;;;;;;;;;;;
2023/03/14 11:49:00;;;;;;;19.52;17.95;;;16.80;99.90;;;;;;4754749;30;20048;-92
2023/03/14 12:11:16;;;;;;;37.63;26.60;;;16.60;99.90;;;;;;599871;23;20326;-93
2023/03/14 12:13:51;;;;;;;24.17;21.40;;;16.60;99.90;;;;;;4879878;29;20097;-94
2023/03/14 12:16:35;;;;;;;24.38;20.58;;;16.40;99.90;;;;;;4882871;29;20035;-93
2023/03/14 12:19:20;;;;;;;25.65;19.63;;;16.40;99.90;;;;;;4885507;29;20029;-92
2023/03/14 12:22:23;;;;;;;19.23;17.55;;;16.50;99.90;;;;;;4886381;29;20566;-92
2023/03/14 13:22:27;;;;;;;19.00;17.20;;;16.60;99.90;;;;;;4949243;23;20091;-91
2023/03/14 13:25:48;;;;;;;;;;;;;;;;;;;;;
2023/03/14 13:28:41;;;;;;;19.25;17.27;;;16.90;99.90;;;;;;4953137;23;20056;31
2023/03/14 13:31:33;;;;;;;19.33;17.65;;;16.50;99.90;;;;;;4968166;23;20062;-91
2023/03/14 13:34:10;;;;;;;21.23;17.30;;;16.20;99.90;;;;;;4944534;28;20031;-94
2023/03/14 13:36:53;;;;;;;18.65;16.42;;;16.40;99.90;;;;;;4946525;28;20023;-94
2023/03/14 13:39:25;;;;;;;19.73;16.98;;;16.40;99.90;;;;;;4945567;28;20476;-94
2023/03/14 13:41:54;;;;;;;18.90;16.92;;;16.50;99.90;;;;;;4960465;28;20031;-93
2023/03/14 13:47:17;;;;;;;20.27;17.55;;;16.70;99.90;;;;;;4957038;29;20056;-93
2023/03/14 14:03:50;;;;;;;21.27;16.00;;;16.10;99.90;;;;;;2101861;23;21625;-91
2023/03/14 14:11:59;;;;;;;23.73;16.02;;;15.90;99.90;;;;;;4962606;28;20051;-92
2023/03/14 14:19:11;;;;;;;19.05;16.52;;;16.00;99.90;;;;;;4943195;29;20087;-92
2023/03/14 14:29:32;;;;;;;21.88;14.43;;;15.70;99.90;;;;;;4862261;29;20049;-93
2023/03/14 14:32:13;;;;;;;19.40;14.60;;;15.70;99.90;;;;;;4897990;29;20039;-93
2023/03/14 14:35:14;;;;;;;23.23;15.15;;;15.90;99.90;;;;;;4939665;23;20050;-93
2023/03/14 14:38:08;;;;;;;26.83;17.02;;;15.90;99.90;;;;;;4924133;29;20039;-94
2023/03/14 14:44:32;;;;;;;25.58;15.70;;;16.10;99.90;;;;;;4974620;23;20449;-92
2023/03/14 14:47:02;;;;;;;16.08;14.40;;;16.10;99.90;;;;;;4925185;29;20131;-93
2023/03/14 14:59:29;;;;;;;34.03;14.65;;;15.80;99.90;;;;;;5093461;23;20119;-92
2023/03/14 15:02:56;;;;;;;;;;;;;;;;;;;;;
2023/03/14 15:05:35;;;;;;;19.50;14.20;;;15.70;99.90;;;;;;4956632;29;20416;-94
2023/03/14 15:54:21;;;;;;;;;;;;;;;;;;;;;
2023/03/14 15:57:38;;;;;;;;;;;;;;;;;;;;;
2023/03/14 16:09:31;;;;;;;22.63;10.50;;;14.90;99.90;;;;;;5171346;23;20055;-93
2023/03/14 16:12:53;;;;;;;21.83;9.63;;;14.90;99.90;;;;;;4927697;29;20027;-94
2023/03/14 16:15:57;;;;;;;18.45;9.60;;;14.80;99.90;;;;;;4928946;29;20031;-92
2023/03/14 17:33:54;;;;;;;32.92;11.95;;;14.20;99.90;;;;;;5458634;23;20047;-92
2023/03/14 17:37:20;;;;;;;35.33;11.95;;;14.30;99.90;;;;;;4926649;29;20031;-93
2023/03/14 17:48:23;;;;;;;;;;;;;;;;;;;;;
2023/03/14 17:51:24;;;;;;;27.77;10.63;;;14.30;99.90;;;;;;4653253;30;20042;-92
2023/03/14 17:57:17;;;;;;;33.70;11.13;;;14.30;99.90;;;;;;4634026;30;20075;-92
2023/03/14 17:59:55;;;;;;;27.42;10.10;;;14.30;99.90;;;;;;4641339;30;20112;-92
2023/03/14 18:02:44;;;;;;;28.27;10.35;;;14.30;99.90;;;;;;4640165;30;20083;-92
2023/03/14 18:05:24;;;;;;;28.80;9.68;;;14.30;99.90;;;;;;4618860;31;20067;-93
2023/03/14 18:07:50;;;;;;;25.20;10.02;;;14.30;99.90;;;;;;4632238;30;20045;-92
2023/03/14 18:10:19;;;;;;;32.92;12.52;;;14.30;99.90;;;;;;4632417;30;20138;-92
2023/03/14 18:12:49;;;;;;;39.80;13.52;;;14.30;99.90;;;;;;4632713;30;20114;-91
2023/03/14 18:15:17;;;;;;;31.45;10.43;;;14.30;99.90;;;;;;4635319;30;20135;-94
2023/03/14 18:17:44;;;;;;;26.83;9.75;;;14.30;99.90;;;;;;4648853;30;20098;-93
2023/03/14 18:20:14;;;;;;;23.90;10.38;;;14.30;99.90;;;;;;4742724;29;20048;-92
2023/03/14 18:22:41;;;;;;;30.90;9.82;;;14.40;99.90;;;;;;4805955;29;20045;-92
2023/03/14 18:25:09;;;;;;;23.20;9.13;;;14.40;99.90;;;;;;4853251;29;20053;-92
2023/03/14 18:27:36;;;;;;;24.60;8.23;;;14.40;99.90;;;;;;4845661;29;20074;-92
2023/03/14 18:30:04;;;;;;;30.05;10.27;;;14.50;99.90;;;;;;4828933;29;20030;-92
2023/03/14 18:32:31;;;;;;;22.20;10.80;;;14.50;99.90;;;;;;4845565;29;20030;-90
2023/03/14 18:34:57;;;;;;;32.20;9.93;;;14.50;99.90;;;;;;4921360;29;20576;-91
2023/03/14 18:37:25;;;;;;;23.65;10.50;;;14.50;99.90;;;;;;4921031;29;20067;-91
2023/03/14 18:39:52;;;;;;;32.63;9.77;;;14.50;99.90;;;;;;4921091;29;20048;-93
2023/03/14 18:42:19;;;;;;;36.30;11.35;;;14.40;99.90;;;;;;4921449;29;20028;-91
2023/03/14 18:44:46;;;;;;;33.40;9.35;;;14.40;99.90;;;;;;4920606;29;20051;-92
2023/03/14 18:47:13;;;;;;;31.98;9.90;;;14.50;99.90;;;;;;4928603;29;20030;-92
2023/03/14 18:49:40;;;;;;;35.55;9.77;;;14.50;99.90;;;;;;4930577;29;20055;-91
2023/03/14 18:52:13;;;;;;;31.30;9.07;;;14.50;99.90;;;;;;4923971;29;20024;-91
2023/03/14 18:55:09;;;;;;;24.97;9.83;;;14.50;99.90;;;;;;4923863;29;20035;-92
2023/03/14 18:58:10;;;;;;;;;;;;;;;;;;;;;
2023/03/14 19:00:49;;;;;;;34.90;9.85;;;14.50;99.90;;;;;;4901704;29;20032;-95
2023/03/14 19:03:56;;;;;;;24.33;8.43;;;14.50;99.90;;;;;;4915012;29;20131;-93
2023/03/14 19:07:12;;;;;;;37.85;9.80;;;14.50;99.90;;;;;;4900887;29;20044;-92
2023/03/14 19:10:06;;;;;;;;;;;;;;;;;;;;;
2023/03/14 19:12:45;;;;;;;31.15;9.30;;;14.50;99.90;;;;;;4899778;29;20045;-92
2023/03/14 19:16:03;;;;;;;;;;;;;;;;;;;;;
2023/03/14 19:18:39;;;;;;;28.05;8.32;;;14.50;99.90;;;;;;4935991;29;20426;-93
2023/03/14 19:21:37;;;;;;;;;;;14.40;99.90;;;;;;4926245;29;20404;-92
2023/03/14 19:24:04;;;;;;;35.35;8.80;;;14.50;99.90;;;;;;4920145;29;19984;-93
